createdAt,value
2022-11-27T00:00:33.605Z,7.57
2022-11-27T00:03:36.447Z,7.78
2022-11-27T00:06:41.976Z,8.40
2022-11-27T00:09:46.015Z,8.60
2022-11-27T00:12:49.669Z,7.53
2022-11-27T00:15:52.385Z,7.37
2022-11-27T00:18:56.266Z,6.85
2022-11-27T00:21:59.837Z,7.18
2022-11-27T00:25:04.063Z,7.50
2022-11-27T00:28:07.640Z,7.10
2022-11-27T00:31:15.224Z,6.90
2022-11-27T00:34:18.869Z,7.50
2022-11-27T00:37:21.576Z,7.10
2022-11-27T00:40:26.583Z,6.93
2022-11-27T00:43:29.300Z,7.43
2022-11-27T00:46:35.933Z,8.17
2022-11-27T00:49:38.801Z,7.95
2022-11-27T00:52:42.530Z,9.35
2022-11-27T00:55:49.180Z,9.02
2022-11-27T00:58:52.693Z,9.10
2022-11-27T01:05:17.209Z,8.55
2022-11-27T01:08:21.811Z,8.82
2022-11-27T01:11:28.054Z,8.02
2022-11-27T01:14:32.224Z,8.13
2022-11-27T01:17:36.198Z,7.93
2022-11-27T01:20:41.117Z,8.07
2022-11-27T01:23:44.046Z,8.00
2022-11-27T01:26:49.491Z,7.38
2022-11-27T01:29:52.344Z,7.83
2022-11-27T01:32:56.342Z,7.50
2022-11-27T01:36:00.890Z,8.45
2022-11-27T01:39:05.575Z,7.78
2022-11-27T01:42:12.476Z,8.18
2022-11-27T01:45:16.950Z,8.40
2022-11-27T01:48:20.931Z,7.97
2022-11-27T01:51:24.209Z,7.95
2022-11-27T01:54:31.036Z,7.97
2022-11-27T01:57:42.558Z,8.38
2022-11-27T02:00:45.340Z,7.77
2022-11-27T02:03:49.385Z,7.70
2022-11-27T02:06:52.257Z,8.02
2022-11-27T02:09:56.452Z,8.40
2022-11-27T02:13:04.325Z,7.80
2022-11-27T02:16:18.508Z,7.73
2022-11-27T02:19:36.398Z,8.07
2022-11-27T02:22:53.233Z,7.25
2022-11-27T02:26:19.730Z,7.20
2022-11-27T02:29:26.618Z,7.25
2022-11-27T02:32:36.399Z,8.13
2022-11-27T02:35:47.983Z,7.50
2022-11-27T02:38:56.313Z,8.18
2022-11-27T02:42:04.386Z,7.20
2022-11-27T02:45:13.129Z,6.95
2022-11-27T02:48:20.794Z,7.13
2022-11-27T02:51:27.873Z,6.83
2022-11-27T02:54:33.460Z,7.43
2022-11-27T02:57:38.729Z,7.15
2022-11-27T03:00:45.714Z,8.00
2022-11-27T03:03:54.442Z,7.57
2022-11-27T03:07:03.878Z,7.80
2022-11-27T03:10:12.981Z,7.30
2022-11-27T03:13:17.115Z,7.82
2022-11-27T03:16:31.415Z,7.20
2022-11-27T03:19:43.946Z,6.90
2022-11-27T03:22:47.966Z,7.23
2022-11-27T03:25:50.651Z,7.18
2022-11-27T03:28:56.180Z,6.95
2022-11-27T03:32:03.251Z,7.00
2022-11-27T03:35:09.738Z,7.40
2022-11-27T03:38:13.858Z,7.50
2022-11-27T03:41:25.623Z,7.35
2022-11-27T03:44:37.787Z,7.07
2022-11-27T03:47:56.358Z,7.88
2022-11-27T03:51:10.647Z,7.90
2022-11-27T03:54:26.273Z,6.90
2022-11-27T03:57:34.846Z,7.32
2022-11-27T04:00:45.011Z,7.45
2022-11-27T04:03:49.113Z,7.10
2022-11-27T04:06:53.171Z,7.30
2022-11-27T04:09:55.889Z,7.50
2022-11-27T04:12:59.922Z,7.07
2022-11-27T04:16:03.077Z,7.05
2022-11-27T04:19:09.368Z,7.00
2022-11-27T04:22:13.267Z,6.20
2022-11-27T04:25:16.019Z,6.57
2022-11-27T04:28:20.397Z,6.53
2022-11-27T04:31:23.221Z,7.07
2022-11-27T04:34:28.650Z,6.75
2022-11-27T04:37:32.643Z,6.20
2022-11-27T04:43:58.409Z,6.82
2022-11-27T04:47:01.237Z,6.05
2022-11-27T04:50:07.673Z,6.82
2022-11-27T04:53:10.567Z,7.10
2022-11-27T04:56:14.530Z,6.50
2022-11-27T04:59:17.273Z,6.22
2022-11-27T05:02:21.212Z,5.95
2022-11-27T05:05:25.268Z,6.43
2022-11-27T05:08:31.410Z,6.23
2022-11-27T05:11:35.960Z,6.20
2022-11-27T05:14:38.904Z,6.45
2022-11-27T05:17:41.819Z,7.20
2022-11-27T05:20:45.915Z,6.90
2022-11-27T05:23:48.736Z,6.53
2022-11-27T05:26:51.513Z,6.97
2022-11-27T05:29:55.473Z,6.05
2022-11-27T05:32:59.512Z,6.45
2022-11-27T05:36:03.578Z,6.30
2022-11-27T05:39:09.177Z,7.00
2022-11-27T05:42:11.920Z,6.47
2022-11-27T05:45:15.868Z,6.78
2022-11-27T05:48:18.571Z,6.40
2022-11-27T05:51:23.982Z,6.35
2022-11-27T05:54:27.987Z,5.95
2022-11-27T05:57:30.933Z,6.00
2022-11-27T06:00:34.910Z,6.20
2022-11-27T06:03:38.980Z,6.57
2022-11-27T06:06:44.374Z,6.32
2022-11-27T06:09:47.036Z,7.13
2022-11-27T06:12:51.000Z,6.83
2022-11-27T06:15:54.957Z,6.20
2022-11-27T06:18:57.716Z,6.63
2022-11-27T06:22:01.777Z,6.88
2022-11-27T06:25:04.761Z,7.25
2022-11-27T06:28:07.521Z,7.30
2022-11-27T06:31:17.525Z,7.13
2022-11-27T06:34:20.909Z,7.28
2022-11-27T06:37:26.274Z,7.45
2022-11-27T06:40:28.991Z,7.28
2022-11-27T06:43:32.974Z,7.07
2022-11-27T06:46:35.801Z,7.28
2022-11-27T06:49:38.495Z,9.02
2022-11-27T06:52:43.842Z,7.55
2022-11-27T06:55:46.561Z,8.23
2022-11-27T06:58:52.423Z,7.40
2022-11-27T07:01:56.445Z,7.43
2022-11-27T07:04:59.172Z,7.15
2022-11-27T07:08:04.559Z,7.07
2022-11-27T07:11:09.129Z,7.20
2022-11-27T07:14:13.153Z,7.60
2022-11-27T07:17:15.845Z,7.60
2022-11-27T07:20:18.599Z,7.55
2022-11-27T07:23:23.193Z,7.22
2022-11-27T07:26:29.009Z,8.75
2022-11-27T07:29:31.760Z,7.67
2022-11-27T07:32:34.485Z,9.00
2022-11-27T07:35:37.301Z,8.82
2022-11-27T07:38:41.788Z,7.60
2022-11-27T07:41:44.539Z,8.07
2022-11-27T07:44:47.301Z,7.77
2022-11-27T07:47:50.013Z,7.70
2022-11-27T07:50:54.187Z,8.15
2022-11-27T07:53:58.572Z,7.38
2022-11-27T08:00:24.511Z,7.00
2022-11-27T08:03:27.286Z,7.72
2022-11-27T08:06:31.629Z,7.95
2022-11-27T08:09:35.701Z,8.50
2022-11-27T08:12:39.721Z,8.43
2022-11-27T08:15:42.516Z,8.27
2022-11-27T08:18:45.280Z,8.73
2022-11-27T08:21:47.998Z,8.63
2022-11-27T08:24:52.761Z,8.88
2022-11-27T08:27:56.766Z,8.25
2022-11-27T08:31:02.026Z,8.00
2022-11-27T08:34:04.778Z,7.53
2022-11-27T08:37:09.666Z,8.70
2022-11-27T08:40:13.906Z,8.57
2022-11-27T08:43:16.685Z,9.07
2022-11-27T08:46:20.804Z,8.50
2022-11-27T08:49:23.718Z,7.90
2022-11-27T08:52:27.665Z,7.57
2022-11-27T08:55:31.754Z,7.53
2022-11-27T08:58:35.803Z,8.15
2022-11-27T09:01:38.677Z,8.68
2022-11-27T09:04:43.003Z,8.10
2022-11-27T09:07:45.859Z,8.25
2022-11-27T09:10:49.972Z,7.87
2022-11-27T09:13:52.835Z,7.35
2022-11-27T09:16:56.938Z,7.95
2022-11-27T09:20:00.930Z,7.85
2022-11-27T09:23:03.697Z,7.38
2022-11-27T09:26:11.106Z,7.87
2022-11-27T09:29:15.087Z,7.72
2022-11-27T09:32:18.368Z,7.45
2022-11-27T09:35:22.823Z,7.15
2022-11-27T09:38:25.872Z,7.32
2022-11-27T09:41:45.441Z,6.80
2022-11-27T09:44:53.100Z,6.32
2022-11-27T09:48:01.577Z,6.93
2022-11-27T09:51:10.404Z,7.30
2022-11-27T09:54:20.870Z,6.65
2022-11-27T09:57:29.398Z,6.80
2022-11-27T10:00:33.580Z,6.60
2022-11-27T10:03:37.473Z,7.38
2022-11-27T10:06:51.883Z,6.30
2022-11-27T10:10:08.693Z,6.63
2022-11-27T10:13:28.478Z,6.23
2022-11-27T10:16:44.068Z,6.15
2022-11-27T10:19:55.718Z,6.30
2022-11-27T10:23:06.056Z,5.95
2022-11-27T10:26:16.871Z,5.72
2022-11-27T10:29:35.817Z,5.73
2022-11-27T10:32:55.745Z,5.22
2022-11-27T10:36:00.933Z,5.75
2022-11-27T10:39:05.665Z,5.20
2022-11-27T10:42:15.130Z,5.60
2022-11-27T10:45:24.348Z,5.40
2022-11-27T10:48:28.442Z,5.65
2022-11-27T10:51:34.986Z,5.55
2022-11-27T10:54:41.959Z,5.20
2022-11-27T10:58:11.197Z,5.18
2022-11-27T11:01:18.649Z,5.20
2022-11-27T11:04:37.601Z,5.57
2022-11-27T11:07:57.401Z,5.93
2022-11-27T11:11:02.204Z,5.07
2022-11-27T11:14:05.189Z,5.35
2022-11-27T11:17:18.585Z,4.97
2022-11-27T11:20:23.341Z,5.15
2022-11-27T11:23:35.043Z,5.78
2022-11-27T11:26:42.634Z,5.18
2022-11-27T11:29:50.031Z,5.35
2022-11-27T11:33:03.457Z,5.33
2022-11-27T11:36:11.285Z,5.00
2022-11-27T11:39:25.235Z,5.38
2022-11-27T11:42:29.864Z,5.32
2022-11-27T11:45:36.069Z,4.90
2022-11-27T11:48:40.689Z,5.30
2022-11-27T11:51:58.544Z,4.72
2022-11-27T11:55:10.453Z,5.10
2022-11-27T11:58:38.068Z,4.85
2022-11-27T12:05:37.876Z,5.20
2022-11-27T12:08:55.096Z,5.20
2022-11-27T12:12:06.027Z,5.05
2022-11-27T12:15:21.383Z,5.20
2022-11-27T12:18:32.253Z,5.32
2022-11-27T12:21:48.857Z,5.03
2022-11-27T12:25:02.295Z,5.30
2022-11-27T12:28:22.491Z,6.07
2022-11-27T12:31:43.430Z,5.55
2022-11-27T12:35:01.182Z,5.78
2022-11-27T12:38:25.239Z,5.17
2022-11-27T12:41:46.674Z,5.30
2022-11-27T12:44:57.942Z,6.15
2022-11-27T12:48:08.289Z,5.70
2022-11-27T12:51:16.896Z,5.90
2022-11-27T12:54:27.728Z,5.63
2022-11-27T12:57:37.958Z,5.40
2022-11-27T13:00:44.948Z,5.55
2022-11-27T13:04:02.599Z,5.43
2022-11-27T13:07:10.768Z,5.35
2022-11-27T13:10:23.594Z,4.97
2022-11-27T13:13:31.840Z,5.18
2022-11-27T13:16:39.141Z,6.10
2022-11-27T13:19:47.133Z,5.35
2022-11-27T13:22:51.904Z,5.15
2022-11-27T13:25:57.469Z,5.33
2022-11-27T13:29:05.544Z,5.18
2022-11-27T13:32:11.324Z,4.93
2022-11-27T13:35:22.882Z,4.95
2022-11-27T13:38:28.859Z,5.35
2022-11-27T13:41:38.651Z,5.13
2022-11-27T13:44:46.104Z,5.78
2022-11-27T13:47:51.322Z,5.82
2022-11-27T13:50:55.409Z,5.63
2022-11-27T13:54:13.558Z,6.10
2022-11-27T13:57:20.809Z,4.97
2022-11-27T14:03:56.362Z,5.45
2022-11-27T14:07:07.462Z,5.40
2022-11-27T14:10:14.628Z,5.95
2022-11-27T14:13:24.891Z,5.93
2022-11-27T14:16:32.502Z,5.40
2022-11-27T14:19:39.642Z,5.30
2022-11-27T14:23:10.394Z,5.72
2022-11-27T14:26:22.092Z,6.20
2022-11-27T14:29:31.791Z,6.27
2022-11-27T14:32:38.345Z,5.78
2022-11-27T14:35:43.087Z,6.18
2022-11-27T14:38:48.850Z,6.57
2022-11-27T14:41:59.151Z,5.72
2022-11-27T14:45:05.468Z,5.73
2022-11-27T14:48:08.333Z,5.70
2022-11-27T14:51:18.305Z,6.25
2022-11-27T14:54:27.839Z,5.28
2022-11-27T14:57:31.961Z,6.15
2022-11-27T15:00:37.381Z,5.43
2022-11-27T15:03:41.055Z,5.72
2022-11-27T15:06:48.528Z,6.95
2022-11-27T15:09:54.537Z,6.30
2022-11-27T15:12:58.908Z,5.60
2022-11-27T15:16:07.348Z,5.20
2022-11-27T15:19:17.723Z,5.18
2022-11-27T15:22:21.139Z,5.30
2022-11-27T15:25:36.923Z,4.93
2022-11-27T15:28:43.261Z,5.35
2022-11-27T15:31:52.373Z,4.97
2022-11-27T15:34:56.007Z,4.85
2022-11-27T15:38:05.521Z,5.53
2022-11-27T15:41:20.896Z,4.55
2022-11-27T15:44:25.632Z,4.40
2022-11-27T15:47:33.328Z,4.80
2022-11-27T15:50:36.033Z,5.00
2022-11-27T15:53:38.884Z,4.82
2022-11-27T15:56:41.909Z,5.05
2022-11-27T15:59:44.698Z,5.15
2022-11-27T16:02:48.851Z,4.93
2022-11-27T16:05:51.646Z,4.57
2022-11-27T16:08:55.906Z,6.22
2022-11-27T16:11:58.647Z,5.70
2022-11-27T16:15:02.745Z,6.82
2022-11-27T16:18:07.129Z,5.80
2022-11-27T16:21:13.086Z,6.10
2022-11-27T16:24:16.544Z,6.50
2022-11-27T16:27:20.544Z,6.28
2022-11-27T16:30:23.292Z,6.30
2022-11-27T16:33:29.132Z,6.40
2022-11-27T16:36:31.977Z,6.13
2022-11-27T16:39:34.829Z,5.97
2022-11-27T16:42:38.941Z,5.93
2022-11-27T16:45:41.751Z,6.03
2022-11-27T16:48:47.481Z,6.22
2022-11-27T16:51:51.468Z,6.57
2022-11-27T16:54:55.677Z,5.72
2022-11-27T16:57:59.703Z,6.07
2022-11-27T17:01:05.709Z,5.73
2022-11-27T17:04:16.552Z,6.78
2022-11-27T17:07:19.330Z,6.30
2022-11-27T17:10:23.323Z,6.18
2022-11-27T17:13:26.183Z,6.10
2022-11-27T17:16:30.898Z,6.43
2022-11-27T17:19:35.141Z,6.30
2022-11-27T17:22:38.016Z,5.38
2022-11-27T17:25:40.901Z,6.05
2022-11-27T17:28:43.662Z,6.60
2022-11-27T17:31:46.675Z,6.60
2022-11-27T17:34:51.007Z,6.80
2022-11-27T17:37:54.958Z,6.97
2022-11-27T17:41:01.388Z,6.70
2022-11-27T17:44:05.752Z,6.97
2022-11-27T17:47:09.725Z,6.33
2022-11-27T17:50:14.203Z,6.50
2022-11-27T17:53:18.231Z,6.40
2022-11-27T17:56:22.512Z,6.25
2022-11-27T18:02:47.195Z,6.60
2022-11-27T18:05:52.797Z,7.50
2022-11-27T18:08:57.292Z,7.25
2022-11-27T18:12:01.298Z,7.00
2022-11-27T18:15:04.398Z,7.15
2022-11-27T18:18:07.675Z,6.37
2022-11-27T18:21:18.011Z,6.88
2022-11-27T18:24:24.381Z,6.47
2022-11-27T18:27:27.529Z,7.28
2022-11-27T18:30:30.319Z,6.82
2022-11-27T18:33:33.060Z,5.97
2022-11-27T18:36:38.356Z,6.55
2022-11-27T18:39:44.349Z,6.80
2022-11-27T18:42:48.488Z,6.55
2022-11-27T18:45:53.159Z,7.32
2022-11-27T18:48:55.903Z,6.77
2022-11-27T18:51:59.995Z,7.28
2022-11-27T18:55:03.774Z,8.00
2022-11-27T18:58:07.742Z,6.22
2022-11-27T19:01:12.958Z,7.68
2022-11-27T19:04:17.287Z,6.90
2022-11-27T19:07:22.821Z,7.50
2022-11-27T19:10:25.604Z,6.70
2022-11-27T19:13:31.023Z,5.93
2022-11-27T19:16:36.151Z,6.32
2022-11-27T19:19:55.507Z,6.90
2022-11-27T19:22:59.762Z,6.05
2022-11-27T19:26:07.112Z,6.53
2022-11-27T19:32:32.923Z,7.07
2022-11-27T19:35:38.201Z,6.50
2022-11-27T19:38:43.917Z,5.90
2022-11-27T19:41:46.730Z,7.22
2022-11-27T19:44:50.721Z,6.40
2022-11-27T19:47:54.977Z,7.18
2022-11-27T19:51:02.544Z,5.47
2022-11-27T19:54:10.554Z,5.65
2022-11-27T19:57:13.647Z,6.00
2022-11-27T20:00:17.137Z,6.47
2022-11-27T20:03:19.933Z,5.63
2022-11-27T20:06:26.701Z,6.03
2022-11-27T20:09:32.068Z,5.53
2022-11-27T20:12:38.043Z,5.80
2022-11-27T20:15:41.051Z,6.45
2022-11-27T20:18:44.147Z,6.47
2022-11-27T20:21:46.963Z,5.83
2022-11-27T20:28:12.744Z,6.28
2022-11-27T20:31:18.143Z,5.97
2022-11-27T20:34:24.010Z,6.25
2022-11-27T20:37:26.825Z,6.30
2022-11-27T20:40:34.868Z,6.07
2022-11-27T20:43:38.054Z,6.13
2022-11-27T20:46:42.326Z,6.07
2022-11-27T20:49:46.377Z,5.90
2022-11-27T20:52:49.095Z,5.77
2022-11-27T20:55:54.456Z,6.07
2022-11-27T20:58:57.835Z,6.22
2022-11-27T21:02:01.479Z,6.63
2022-11-27T21:05:04.582Z,7.13
2022-11-27T21:08:08.566Z,6.90
2022-11-27T21:11:15.466Z,6.78
2022-11-27T21:14:20.123Z,6.75
2022-11-27T21:17:24.204Z,6.22
2022-11-27T21:20:27.004Z,6.97
2022-11-27T21:23:30.395Z,7.40
2022-11-27T21:26:35.233Z,6.95
2022-11-27T21:29:39.790Z,7.75
2022-11-27T21:32:43.942Z,6.88
2022-11-27T21:35:46.758Z,7.22
2022-11-27T21:38:51.153Z,7.03
2022-11-27T21:41:56.727Z,7.07
2022-11-27T21:45:01.097Z,7.22
2022-11-27T21:48:06.364Z,6.88
2022-11-27T21:51:12.762Z,7.82
2022-11-27T21:54:17.189Z,6.97
2022-11-27T21:57:21.650Z,7.18
2022-11-27T22:00:25.771Z,6.85
2022-11-27T22:03:28.577Z,7.03
2022-11-27T22:06:38.315Z,7.65
2022-11-27T22:09:41.053Z,7.80
2022-11-27T22:13:06.218Z,7.80
2022-11-27T22:16:10.322Z,7.43
2022-11-27T22:19:15.344Z,7.40
2022-11-27T22:22:18.146Z,7.88
2022-11-27T22:25:22.168Z,6.50
2022-11-27T22:28:26.296Z,7.05
2022-11-27T22:31:32.263Z,7.22
2022-11-27T22:34:36.373Z,7.00
2022-11-27T22:37:41.025Z,8.15
2022-11-27T22:40:44.138Z,7.80
2022-11-27T22:43:49.843Z,8.23
2022-11-27T22:46:52.643Z,8.32
2022-11-27T22:49:56.703Z,7.68
2022-11-27T22:52:59.387Z,9.10
2022-11-27T22:56:07.622Z,8.40
2022-11-27T23:02:39.509Z,8.63
2022-11-27T23:05:46.454Z,8.30
2022-11-27T23:08:49.936Z,8.02
2022-11-27T23:11:54.123Z,9.43
2022-11-27T23:14:58.217Z,9.10
2022-11-27T23:18:02.197Z,8.75
2022-11-27T23:21:07.542Z,8.48
2022-11-27T23:24:15.075Z,8.70
2022-11-27T23:27:19.069Z,7.93
2022-11-27T23:30:23.120Z,8.30
2022-11-27T23:33:27.086Z,7.75
2022-11-27T23:36:30.266Z,7.53
2022-11-27T23:39:34.232Z,7.82
2022-11-27T23:42:38.212Z,7.27
2022-11-27T23:45:42.542Z,7.15
2022-11-27T23:48:46.676Z,8.32
2022-11-27T23:51:49.372Z,8.45
2022-11-27T23:54:53.724Z,8.25
2022-11-27T23:57:56.424Z,7.97
